Flight Track Log - Related Links

Times and Time Zones

All times are in EDT time to prevent confusion due to time zone crossing. See the SWA378 flight status page for this flight to view local times or setup timezone preferences in your user account.

Time Position Orientation Groundspeed Altitude Reporting Facility
EDT Latitude Longitude Course Direction KTS MPH feet Rate Location/Type
Wed 08:25:00 PM 36.9575 -76.2236 344° North 221 254 3,800  Level Washington Center
Wed 08:26:01 PM 36.9572 -76.3067 270° West 270 311 4,000 1,256 Climbing Washington Center
Wed 08:27:52 PM 37.0167 -76.4503 297° West 289 333 7,400 2,805 Climbing Washington Center
Wed 08:28:50 PM 37.0578 -76.5367 301° West 282 325 11,900 4,235 Climbing Washington Center
Wed 08:29:51 PM 37.1050 -76.6389 300° West 310 357 15,800 2,016 Climbing Washington Center
Wed 08:30:52 PM 37.1542 -76.7411 301° West 334 384 16,000 99 Climbing Washington Center
Wed 08:31:52 PM 37.1989 -76.8383 300° West 334 384 16,000  Level Washington Center
Wed 08:32:53 PM 37.2478 -76.9486 299° West 329 379 16,000  Level Washington Center
Wed 08:33:50 PM 37.2947 -77.0461 301° West 329 379 16,000  Level Washington Center
Wed 08:34:51 PM 37.3436 -77.1411 303° West 324 373 16,000  Level Washington Center
Wed 08:35:52 PM 37.4114 -77.2156 319° Northwest 319 367 16,000  Level Washington Center
Wed 08:36:50 PM 37.4772 -77.2928 317° Northwest 319 367 16,000  Level Washington Center
Wed 08:37:50 PM 37.5533 -77.3547 327° Northwest 324 373 16,000  Level Washington Center
Wed 08:38:52 PM 37.6317 -77.4117 330° Northwest 324 373 16,000  Level Washington Center
Wed 08:39:52 PM 37.7103 -77.4686 330° Northwest 324 373 16,000  Level Washington Center
Wed 08:40:50 PM 37.7864 -77.5258 329° Northwest 319 367 16,000  Level Washington Center
Wed 08:41:51 PM 37.8683 -77.4883 20° North 287 330 16,000  Level Washington Center
Wed 08:42:51 PM 37.9464 -77.4325 29° Northeast 292 336 16,000  Level Washington Center
Wed 08:43:52 PM 38.0286 -77.3817 26° Northeast 310 357 16,000  Level Washington Center
Wed 08:44:52 PM 38.0958 -77.3358 28° Northeast 310 357 16,000  Level Washington Center
Wed 08:45:50 PM 38.1739 -77.2847 27° Northeast 310 357 16,000  Level Washington Center
Wed 08:46:50 PM 38.2497 -77.2283 30° Northeast 310 357 16,000  Level Washington Center
Wed 08:47:51 PM 38.3275 -77.1744 29° Northeast 310 357 16,000 -545 Level Washington Center
Wed 08:48:51 PM 38.4011 -77.1178 31° Northeast 310 357 14,900 -1,289 Descending Washington Center
Wed 08:49:52 PM 38.4583 -77.0447 45° Northeast 297 342 13,400 -1,462 Descending Washington Center
Wed 08:50:50 PM 38.5156 -76.9767 43° Northeast 286 329 12,000 -706 Descending Washington Center
Wed 08:51:51 PM 38.5683 -76.9142 43° Northeast 273 314 12,000 -876 Level Washington Center
Wed 08:53:55 PM 38.6833 -76.7667 45° Northeast 259 298 9,300 -1,042 Descending Potomac TRACON
Wed 08:55:01 PM 38.7333 -76.6833 52° Northeast 255 293 8,700 -952 Descending Potomac TRACON
Wed 08:56:01 PM 38.7667 -76.6167 57° Northeast 250 288 7,300 -1,250 Descending Potomac TRACON
Wed 08:57:01 PM 38.8000 -76.5333 63° Northeast 248 285 6,200 -1,050 Descending Potomac TRACON
Wed 08:58:01 PM 38.8667 -76.5500 349° North 248 285 5,200 -550 Descending Potomac TRACON
Wed 08:59:01 PM 38.9333 -76.5833 339° North 246 283 5,100 -53 Descending Potomac TRACON
Wed 08:59:55 PM 38.9833 -76.6167 333° Northwest 255 293 5,100 -450 Level Potomac TRACON
Wed 09:01:01 PM 39.0167 -76.7000 297° West 253 291 4,200 -905 Descending Potomac TRACON
Wed 09:02:01 PM 39.0500 -76.7833 297° West 246 283 3,200 -900 Descending Potomac TRACON
Wed 09:03:01 PM 39.1000 -76.8500 314° West 236 272 2,400 -600 Descending Potomac TRACON
Wed 09:04:01 PM 39.1500 -76.8500 360° North 179 206 2,000 -150 Descending Potomac TRACON
Wed 09:05:01 PM 39.1833 -76.8500 360° North 145 167 2,100  Climbing Potomac TRACON
Wed 09:06:01 PM 39.1833 -76.8167 90° East 108 124 2,000 -300 Descending Potomac TRACON
Wed 09:07:01 PM 39.1833 -76.7667 90° East 109 125 1,500 -545 Descending Potomac TRACON
Wed 09:08:02 PM 39.1833 -76.7333 90° East 110 127 900 -590 Descending Potomac TRACON
Wed 09:10:00 PM 39.1667 -76.6667 97° East  Level FlightAware Approximate

Login

Don't have an account? Register now (free) for customized features, flight alerts, and more!